Time;durP1;ratioP1;P1;durP2;ratioP2;P2;SDS_P1;SDS_P2;PMS_P1;PMS_P2;Temp;Humidity;BMP_temperature;BMP_pressure;BME280_temperature;BME280_humidity;BME280_pressure;Samples;Min_cycle;Max_cycle;Signal;HPM_P1;HPM_P2
2022/01/02 00:00:41;;;;;;;17.70;10.70;;;;;;;;;;5073545;28;20545;-71
2022/01/02 00:03:08;;;;;;;18.33;10.60;;;;;;;;;;5073636;28;20459;-71
2022/01/02 00:05:38;;;;;;;24.50;12.50;;;;;;;;;;5073246;28;20467;-71
2022/01/02 00:08:05;;;;;;;17.13;11.00;;;;;;;;;;5073634;28;20462;-71
2022/01/02 00:10:34;;;;;;;15.40;10.80;;;;;;;;;;5073516;28;20456;-71
2022/01/02 00:13:03;;;;;;;14.83;11.10;;;;;;;;;;5073787;28;20975;-71
2022/01/02 00:15:30;;;;;;;16.37;9.43;;;;;;;;;;5073003;28;20464;-71
2022/01/02 00:18:05;;;;;;;17.83;12.13;;;;;;;;;;5073274;28;20459;-71
2022/01/02 00:20:32;;;;;;;15.87;11.10;;;;;;;;;;5073129;28;20459;-71
2022/01/02 00:23:00;;;;;;;19.17;11.17;;;;;;;;;;5073501;28;20452;-71
2022/01/02 00:25:33;;;;;;;18.47;10.73;;;;;;;;;;5073038;28;20989;-71
2022/01/02 00:28:01;;;;;;;20.13;10.50;;;;;;;;;;5073273;28;20456;-71
2022/01/02 00:30:30;;;;;;;15.80;10.47;;;;;;;;;;5073141;28;20466;-71
2022/01/02 00:32:57;;;;;;;20.40;11.97;;;;;;;;;;5073023;28;20451;-71
2022/01/02 00:35:25;;;;;;;18.27;11.47;;;;;;;;;;5072608;28;20480;-71
2022/01/02 00:37:52;;;;;;;20.23;11.37;;;;;;;;;;5072933;28;20902;-71
2022/01/02 00:40:19;;;;;;;19.53;10.37;;;;;;;;;;5073132;28;20448;-71
2022/01/02 00:42:46;;;;;;;24.13;12.30;;;;;;;;;;5072927;28;20502;-71
2022/01/02 00:45:16;;;;;;;16.03;10.43;;;;;;;;;;5072871;28;20973;-71
2022/01/02 00:47:46;;;;;;;16.83;11.60;;;;;;;;;;5073150;28;20959;-71
2022/01/02 00:50:15;;;;;;;16.13;10.37;;;;;;;;;;5072911;28;20455;-71
2022/01/02 00:52:43;;;;;;;15.30;10.87;;;;;;;;;;5072804;28;20464;-71
2022/01/02 00:55:11;;;;;;;19.80;11.40;;;;;;;;;;5072658;28;20472;-71
2022/01/02 00:57:39;;;;;;;20.57;11.50;;;;;;;;;;5072725;28;20460;-71
2022/01/02 01:00:10;;;;;;;19.13;12.53;;;;;;;;;;5072944;28;20816;-71
2022/01/02 01:02:40;;;;;;;18.17;11.50;;;;;;;;;;5072675;28;21026;-71
2022/01/02 01:05:09;;;;;;;24.93;14.60;;;;;;;;;;5072610;28;20835;-71
2022/01/02 01:07:38;;;;;;;20.73;12.90;;;;;;;;;;5072603;28;20456;-71
2022/01/02 01:10:07;;;;;;;15.37;11.10;;;;;;;;;;5072724;28;20451;-71
2022/01/02 01:12:34;;;;;;;14.93;10.47;;;;;;;;;;5072607;28;20450;-71
2022/01/02 01:15:01;;;;;;;20.83;11.33;;;;;;;;;;5072488;28;20479;-71
2022/01/02 01:17:30;;;;;;;16.03;9.60;;;;;;;;;;5072726;28;20447;-71
2022/01/02 01:19:58;;;;;;;16.53;11.10;;;;;;;;;;5072648;28;21039;-71
2022/01/02 01:22:26;;;;;;;15.43;10.10;;;;;;;;;;5072519;28;21046;-71
2022/01/02 01:24:53;;;;;;;18.03;10.43;;;;;;;;;;5072549;28;20482;-71
2022/01/02 01:27:20;;;;;;;17.47;9.83;;;;;;;;;;5072508;28;20822;-71
2022/01/02 01:29:48;;;;;;;22.80;12.87;;;;;;;;;;5072480;28;20971;-71
2022/01/02 01:32:15;;;;;;;14.50;11.10;;;;;;;;;;5072608;28;20451;-71
2022/01/02 01:34:42;;;;;;;27.33;15.10;;;;;;;;;;5072070;28;20494;-71
2022/01/02 01:37:09;;;;;;;25.07;15.70;;;;;;;;;;5071937;28;20891;-71
2022/01/02 01:39:37;;;;;;;23.00;14.13;;;;;;;;;;5072484;28;20451;-71
2022/01/02 01:42:10;;;;;;;28.93;14.80;;;;;;;;;;5072479;28;20851;-71
2022/01/02 01:45:03;;;;;;;24.93;15.90;;;;;;;;;;5073098;28;20533;-71
2022/01/02 01:47:29;;;;;;;14.83;10.40;;;;;;;;;;5076157;28;20886;-71
2022/01/02 01:49:56;;;;;;;13.33;9.17;;;;;;;;;;5076378;28;20830;-71
2022/01/02 01:52:23;;;;;;;12.43;8.53;;;;;;;;;;5076093;28;20451;-71
2022/01/02 01:54:52;;;;;;;23.57;10.30;;;;;;;;;;5075851;28;20480;-71
2022/01/02 01:57:19;;;;;;;13.80;9.80;;;;;;;;;;5076138;28;20475;-71
2022/01/02 01:59:48;;;;;;;14.40;8.23;;;;;;;;;;5075952;28;20458;-71
2022/01/02 02:02:15;;;;;;;11.00;8.17;;;;;;;;;;5075999;28;20487;-71
2022/01/02 02:04:43;;;;;;;13.20;9.17;;;;;;;;;;5075505;28;20494;-71
2022/01/02 02:07:10;;;;;;;15.33;9.53;;;;;;;;;;5075923;28;20459;-71
2022/01/02 02:09:51;;;;;;;13.20;8.70;;;;;;;;;;5075769;28;20457;-71
2022/01/02 02:12:20;;;;;;;13.47;9.60;;;;;;;;;;5075893;28;20936;-71
2022/01/02 02:14:47;;;;;;;13.23;9.03;;;;;;;;;;5075572;28;20478;-71
2022/01/02 02:17:14;;;;;;;12.07;8.30;;;;;;;;;;5075649;28;20447;-71
2022/01/02 02:19:41;;;;;;;11.03;8.00;;;;;;;;;;5075485;28;20921;-71
2022/01/02 02:22:12;;;;;;;12.90;8.57;;;;;;;;;;5075578;28;20491;-71
2022/01/02 02:24:39;;;;;;;12.83;8.67;;;;;;;;;;5075180;28;20479;-71
2022/01/02 02:27:06;;;;;;;12.13;8.07;;;;;;;;;;5075427;28;20458;-71
2022/01/02 02:29:33;;;;;;;18.20;9.90;;;;;;;;;;5075224;28;20467;-71
2022/01/02 02:32:00;;;;;;;13.40;8.77;;;;;;;;;;5075380;28;20960;-71
2022/01/02 02:34:27;;;;;;;14.27;9.10;;;;;;;;;;5075103;28;20452;-71
2022/01/02 02:36:54;;;;;;;12.07;7.70;;;;;;;;;;5074869;28;20462;-71
2022/01/02 02:39:23;;;;;;;10.00;7.80;;;;;;;;;;5075241;28;20948;-71
2022/01/02 02:41:50;;;;;;;14.00;9.40;;;;;;;;;;5075138;28;20498;-71
2022/01/02 02:44:31;;;;;;;21.63;10.80;;;;;;;;;;5074839;28;20500;-71
2022/01/02 02:49:43;;;;;;;15.87;9.50;;;;;;;;;;5075108;28;20894;-71
2022/01/02 02:52:19;;;;;;;12.53;8.47;;;;;;;;;;5075034;28;20497;-71
2022/01/02 02:54:48;;;;;;;13.53;9.30;;;;;;;;;;5074852;28;20834;-71
2022/01/02 02:57:18;;;;;;;15.57;10.20;;;;;;;;;;5073763;28;20945;-71
2022/01/02 02:59:45;;;;;;;25.70;13.40;;;;;;;;;;5074992;28;20491;-71
2022/01/02 03:02:12;;;;;;;24.10;12.73;;;;;;;;;;5074860;28;20487;-71
2022/01/02 03:04:39;;;;;;;21.43;13.10;;;;;;;;;;5074467;28;20476;-71
2022/01/02 03:07:06;;;;;;;19.73;9.60;;;;;;;;;;5074777;28;20451;-71
2022/01/02 03:09:42;;;;;;;17.57;9.03;;;;;;;;;;5074679;28;20451;-71
2022/01/02 03:12:11;;;;;;;10.43;7.30;;;;;;;;;;5074797;28;20439;-71
2022/01/02 03:14:38;;;;;;;10.40;7.30;;;;;;;;;;5074255;28;20475;-71
2022/01/02 03:17:06;;;;;;;10.37;7.33;;;;;;;;;;5074645;28;20456;-71
2022/01/02 03:19:33;;;;;;;10.57;6.60;;;;;;;;;;5074561;28;20451;-71
2022/01/02 03:22:00;;;;;;;9.10;6.73;;;;;;;;;;5074302;28;20491;-70
2022/01/02 03:24:27;;;;;;;12.20;6.97;;;;;;;;;;5074065;28;20941;-70
2022/01/02 03:26:54;;;;;;;10.10;7.17;;;;;;;;;;5074437;28;20451;-70
2022/01/02 03:29:23;;;;;;;11.20;8.07;;;;;;;;;;5074176;28;20833;-70
2022/01/02 03:31:51;;;;;;;10.30;7.23;;;;;;;;;;5074288;28;20501;-70
2022/01/02 03:34:18;;;;;;;8.53;6.47;;;;;;;;;;5073893;28;20452;-70
2022/01/02 03:36:45;;;;;;;22.20;13.10;;;;;;;;;;5073617;28;20820;-71
2022/01/02 03:39:12;;;;;;;22.83;12.87;;;;;;;;;;5074281;28;20455;-71
2022/01/02 03:41:39;;;;;;;11.03;8.10;;;;;;;;;;5073953;28;20936;-71
2022/01/02 03:44:06;;;;;;;8.80;5.97;;;;;;;;;;5073953;28;20462;-71
2022/01/02 03:46:35;;;;;;;9.47;7.03;;;;;;;;;;5074116;28;20475;-71
2022/01/02 03:49:02;;;;;;;8.47;6.77;;;;;;;;;;5073938;28;20482;-71
2022/01/02 03:51:29;;;;;;;11.63;8.00;;;;;;;;;;5073948;28;20447;-71
2022/01/02 03:53:56;;;;;;;11.00;6.63;;;;;;;;;;5073646;28;20454;-71
2022/01/02 03:56:23;;;;;;;10.73;7.40;;;;;;;;;;5073598;28;20475;-71
2022/01/02 03:58:50;;;;;;;7.43;5.90;;;;;;;;;;5073692;28;20452;-71
2022/01/02 04:01:17;;;;;;;8.87;6.50;;;;;;;;;;5073761;28;20455;-71
2022/01/02 04:03:45;;;;;;;9.50;6.73;;;;;;;;;;5073366;28;20495;-71
2022/01/02 04:06:13;;;;;;;11.50;6.70;;;;;;;;;;5073621;28;20471;-71
2022/01/02 04:08:40;;;;;;;14.80;7.77;;;;;;;;;;5073207;28;20447;-71
2022/01/02 04:11:07;;;;;;;17.10;7.80;;;;;;;;;;5073549;28;20462;-71
2022/01/02 04:13:34;;;;;;;11.53;6.80;;;;;;;;;;5073392;28;20953;-71
2022/01/02 04:16:01;;;;;;;9.27;6.77;;;;;;;;;;5073511;28;20467;-71
2022/01/02 04:18:28;;;;;;;13.10;7.47;;;;;;;;;;5073496;28;20448;-71
2022/01/02 04:20:56;;;;;;;11.20;7.70;;;;;;;;;;5073544;28;20811;-71
2022/01/02 04:23:24;;;;;;;19.80;8.00;;;;;;;;;;5073188;28;20487;-71
2022/01/02 04:25:51;;;;;;;10.63;6.53;;;;;;;;;;5072956;28;20475;-71
2022/01/02 04:28:18;;;;;;;9.30;7.07;;;;;;;;;;5073153;28;20826;-71
2022/01/02 04:30:45;;;;;;;11.40;6.90;;;;;;;;;;5073129;28;20448;-71
2022/01/02 04:33:12;;;;;;;14.13;6.47;;;;;;;;;;5073047;28;20448;-71
2022/01/02 04:35:39;;;;;;;9.87;6.83;;;;;;;;;;5072764;28;20820;-71
2022/01/02 04:38:08;;;;;;;9.20;6.70;;;;;;;;;;5072794;28;20466;-71
2022/01/02 04:40:35;;;;;;;9.37;6.20;;;;;;;;;;5073157;28;20454;-71
2022/01/02 04:43:02;;;;;;;8.17;5.90;;;;;;;;;;5073152;28;20484;-71
2022/01/02 04:45:29;;;;;;;17.43;7.50;;;;;;;;;;5072624;28;20483;-71
2022/01/02 04:47:56;;;;;;;8.37;6.20;;;;;;;;;;5073132;28;20478;-71
2022/01/02 04:50:23;;;;;;;6.90;5.70;;;;;;;;;;5072933;28;20463;-71
2022/01/02 04:52:50;;;;;;;7.67;6.20;;;;;;;;;;5073018;28;20954;-71
2022/01/02 04:55:19;;;;;;;13.93;6.53;;;;;;;;;;5072687;28;20463;-71
2022/01/02 04:57:46;;;;;;;10.13;6.63;;;;;;;;;;5072834;28;20940;-71
2022/01/02 05:00:14;;;;;;;7.90;6.30;;;;;;;;;;5072944;28;20463;-71
2022/01/02 05:02:41;;;;;;;11.70;7.83;;;;;;;;;;5072797;28;20478;-71
2022/01/02 05:05:08;;;;;;;10.37;6.97;;;;;;;;;;5072522;28;20833;-71
2022/01/02 05:07:35;;;;;;;10.27;6.97;;;;;;;;;;5072756;28;20459;-71
2022/01/02 05:10:02;;;;;;;10.20;7.13;;;;;;;;;;5072803;28;20452;-71
2022/01/02 05:12:31;;;;;;;10.23;7.40;;;;;;;;;;5072613;28;20460;-71
2022/01/02 05:14:58;;;;;;;13.20;6.30;;;;;;;;;;5072500;28;20475;-71
2022/01/02 05:17:26;;;;;;;6.97;6.27;;;;;;;;;;5072602;28;20455;-71
2022/01/02 05:19:53;;;;;;;10.07;7.00;;;;;;;;;;5074189;28;20458;-71
2022/01/02 05:22:20;;;;;;;6.67;6.00;;;;;;;;;;5076707;28;20510;-71
2022/01/02 05:24:47;;;;;;;10.40;5.90;;;;;;;;;;5076422;28;20464;-71
2022/01/02 05:27:14;;;;;;;10.43;8.00;;;;;;;;;;5076718;28;20439;-71
2022/01/02 05:29:43;;;;;;;9.43;6.50;;;;;;;;;;5076500;28;20459;-71
2022/01/02 05:32:10;;;;;;;9.73;6.60;;;;;;;;;;5076563;28;20821;-71
2022/01/02 05:34:37;;;;;;;9.97;7.90;;;;;;;;;;5076202;28;20482;-71
2022/01/02 05:37:04;;;;;;;13.57;7.80;;;;;;;;;;5075943;28;20451;-71
2022/01/02 05:39:31;;;;;;;10.40;6.57;;;;;;;;;;5076302;28;20459;-71
2022/01/02 05:41:59;;;;;;;8.43;6.47;;;;;;;;;;5076404;28;20474;-71
2022/01/02 05:44:26;;;;;;;9.03;6.83;;;;;;;;;;5075964;28;20448;-71
2022/01/02 05:46:54;;;;;;;8.63;6.23;;;;;;;;;;5076189;28;20455;-71
2022/01/02 05:49:21;;;;;;;10.43;7.83;;;;;;;;;;5076226;28;20459;-71
2022/01/02 05:51:48;;;;;;;8.50;7.23;;;;;;;;;;5076359;28;20804;-71
2022/01/02 05:54:15;;;;;;;9.67;6.47;;;;;;;;;;5075802;28;20451;-71
2022/01/02 05:56:42;;;;;;;14.80;7.20;;;;;;;;;;5076037;28;20452;-71
2022/01/02 05:59:10;;;;;;;8.93;7.00;;;;;;;;;;5076143;28;20444;-71
2022/01/02 06:01:37;;;;;;;12.53;6.00;;;;;;;;;;5075891;28;20972;-71
2022/01/02 06:04:05;;;;;;;13.13;7.03;;;;;;;;;;5075677;28;20494;-71
2022/01/02 06:06:32;;;;;;;14.27;7.30;;;;;;;;;;5075666;28;20507;-71
2022/01/02 06:08:59;;;;;;;8.87;7.10;;;;;;;;;;5075942;28;20989;-71
2022/01/02 06:11:26;;;;;;;14.80;7.80;;;;;;;;;;5075766;28;20447;-71
2022/01/02 06:13:54;;;;;;;13.97;8.27;;;;;;;;;;5075617;28;20963;-71
2022/01/02 06:16:21;;;;;;;11.57;8.03;;;;;;;;;;5075638;28;20471;-71
2022/01/02 06:18:48;;;;;;;12.10;7.80;;;;;;;;;;5075721;28;20447;-71
2022/01/02 06:21:16;;;;;;;10.13;7.27;;;;;;;;;;5075574;28;20452;-71
2022/01/02 06:23:43;;;;;;;11.40;7.43;;;;;;;;;;5075310;28;20846;-71
2022/01/02 06:26:10;;;;;;;11.07;8.73;;;;;;;;;;5075471;28;20467;-71
2022/01/02 06:28:37;;;;;;;8.07;6.33;;;;;;;;;;5075238;28;20937;-71
2022/01/02 06:31:05;;;;;;;8.00;6.40;;;;;;;;;;5075282;28;20459;-71
2022/01/02 06:33:32;;;;;;;11.43;7.13;;;;;;;;;;5075131;28;20455;-71
2022/01/02 06:35:59;;;;;;;6.77;5.40;;;;;;;;;;5075358;28;20862;-71
2022/01/02 06:38:28;;;;;;;6.63;5.90;;;;;;;;;;5074752;28;20463;-71
2022/01/02 06:40:55;;;;;;;9.50;5.73;;;;;;;;;;5075295;28;20451;-71
2022/01/02 06:43:22;;;;;;;10.03;5.23;;;;;;;;;;5075015;28;20491;-71
2022/01/02 06:45:49;;;;;;;7.80;5.60;;;;;;;;;;5074992;28;20528;-71
2022/01/02 06:48:16;;;;;;;7.40;5.80;;;;;;;;;;5075092;28;20814;-71
2022/01/02 06:50:44;;;;;;;10.00;6.43;;;;;;;;;;5075343;28;20527;-71
2022/01/02 06:53:11;;;;;;;8.10;5.90;;;;;;;;;;5075046;28;20456;-71
2022/01/02 06:55:39;;;;;;;6.93;5.27;;;;;;;;;;5074699;28;20471;-71
2022/01/02 06:58:06;;;;;;;8.27;6.23;;;;;;;;;;5075181;28;20907;-71
2022/01/02 07:00:34;;;;;;;6.87;5.27;;;;;;;;;;5074976;28;20506;-71
2022/01/02 07:03:01;;;;;;;5.83;4.90;;;;;;;;;;5074872;28;20479;-71
2022/01/02 07:05:28;;;;;;;11.10;5.50;;;;;;;;;;5074675;28;20471;-71
2022/01/02 07:07:55;;;;;;;8.43;5.80;;;;;;;;;;5074979;28;20444;-71
2022/01/02 07:10:22;;;;;;;5.60;5.00;;;;;;;;;;5074493;28;20479;-71
2022/01/02 07:12:50;;;;;;;6.90;5.40;;;;;;;;;;5074908;28;20447;-71
2022/01/02 07:15:18;;;;;;;5.30;4.80;;;;;;;;;;5074442;28;20483;-71
2022/01/02 07:17:45;;;;;;;4.97;4.47;;;;;;;;;;5074657;28;20452;-71
2022/01/02 07:20:13;;;;;;;10.90;6.13;;;;;;;;;;5074755;28;20957;-70
2022/01/02 07:22:42;;;;;;;6.50;5.13;;;;;;;;;;5074485;28;20836;-71
2022/01/02 07:25:09;;;;;;;13.00;8.67;;;;;;;;;;5074400;28;20819;-71
2022/01/02 07:27:37;;;;;;;17.17;12.17;;;;;;;;;;5074445;28;20463;-71
2022/01/02 07:30:06;;;;;;;13.87;8.90;;;;;;;;;;5074469;28;20838;-71
2022/01/02 07:32:33;;;;;;;13.40;7.70;;;;;;;;;;5074407;28;20937;-71
2022/01/02 07:35:00;;;;;;;11.30;8.70;;;;;;;;;;5074135;28;20468;-71
2022/01/02 07:37:27;;;;;;;12.73;7.87;;;;;;;;;;5073660;28;20459;-71
2022/01/02 07:39:54;;;;;;;9.83;8.07;;;;;;;;;;5074314;28;20448;-71
2022/01/02 07:42:22;;;;;;;14.00;9.80;;;;;;;;;;5073447;28;21047;-71
2022/01/02 07:44:49;;;;;;;27.60;16.10;;;;;;;;;;5073966;28;20488;-71
2022/01/02 07:47:17;;;;;;;27.60;15.90;;;;;;;;;;5074111;28;20447;-71
2022/01/02 07:49:44;;;;;;;24.13;13.60;;;;;;;;;;5074093;28;20956;-71
2022/01/02 07:52:11;;;;;;;19.00;12.77;;;;;;;;;;5073926;28;20460;-71
2022/01/02 07:54:38;;;;;;;14.20;11.63;;;;;;;;;;5073659;28;20483;-71
2022/01/02 07:57:06;;;;;;;20.70;11.97;;;;;;;;;;5073873;28;20813;-71
2022/01/02 07:59:33;;;;;;;24.70;15.37;;;;;;;;;;5073854;28;20459;-70
2022/01/02 08:02:00;;;;;;;56.67;29.87;;;;;;;;;;5073897;28;20826;-70
2022/01/02 08:04:29;;;;;;;71.23;33.50;;;;;;;;;;5073391;28;20491;-70
2022/01/02 08:06:56;;;;;;;33.17;18.20;;;;;;;;;;5073795;28;20957;-70
2022/01/02 08:09:23;;;;;;;45.03;22.00;;;;;;;;;;5073593;28;20478;-71
2022/01/02 08:11:51;;;;;;;80.60;34.40;;;;;;;;;;5073586;28;20459;-71
2022/01/02 08:14:18;;;;;;;101.00;44.07;;;;;;;;;;5073324;28;20452;-71
2022/01/02 08:16:45;;;;;;;92.37;36.40;;;;;;;;;;5072280;28;20464;-71
2022/01/02 08:19:12;;;;;;;23.60;14.80;;;;;;;;;;5073519;28;20448;-71
2022/01/02 08:21:40;;;;;;;16.70;10.80;;;;;;;;;;5073434;28;20459;-71
2022/01/02 08:24:08;;;;;;;15.53;10.50;;;;;;;;;;5073244;28;20514;-71
2022/01/02 08:26:35;;;;;;;20.20;10.80;;;;;;;;;;5073237;28;20467;-71
2022/01/02 08:29:02;;;;;;;93.20;33.83;;;;;;;;;;5073242;28;20459;-71
2022/01/02 08:31:29;;;;;;;336.40;114.33;;;;;;;;;;5073375;28;20959;-71
2022/01/02 08:33:57;;;;;;;98.03;33.23;;;;;;;;;;5067930;28;20451;-71
2022/01/02 08:36:24;;;;;;;573.73;213.63;;;;;;;;;;5071231;28;20499;-71
2022/01/02 08:38:52;;;;;;;57.93;22.90;;;;;;;;;;5072029;28;20825;-71
2022/01/02 08:41:19;;;;;;;12.67;7.50;;;;;;;;;;5071659;28;21022;-71
2022/01/02 08:43:47;;;;;;;13.20;7.47;;;;;;;;;;5071470;28;21044;-71
2022/01/02 08:46:14;;;;;;;11.00;7.40;;;;;;;;;;5071697;28;21000;-71
2022/01/02 08:48:41;;;;;;;7.97;6.40;;;;;;;;;;5071638;28;20820;-71
2022/01/02 08:51:11;;;;;;;14.33;6.97;;;;;;;;;;5071709;28;20454;-71
2022/01/02 08:53:38;;;;;;;10.70;7.30;;;;;;;;;;5071738;28;20955;-71
2022/01/02 08:56:06;;;;;;;45.30;25.87;;;;;;;;;;5071540;28;20471;-72
2022/01/02 08:58:33;;;;;;;18.73;12.07;;;;;;;;;;5071848;28;20455;-71
2022/01/02 09:01:00;;;;;;;15.30;9.87;;;;;;;;;;5071595;28;20443;-71
2022/01/02 09:03:29;;;;;;;14.73;9.53;;;;;;;;;;5071471;28;20487;-72
2022/01/02 09:05:56;;;;;;;29.80;21.93;;;;;;;;;;5071743;28;20488;-72
2022/01/02 09:08:23;;;;;;;12.10;9.97;;;;;;;;;;5071482;28;20455;-72
2022/01/02 09:10:50;;;;;;;10.63;8.00;;;;;;;;;;5071469;28;20525;-72
2022/01/02 09:13:21;;;;;;;8.53;7.57;;;;;;;;;;5071675;28;20444;-72
2022/01/02 09:15:48;;;;;;;10.53;8.10;;;;;;;;;;5072129;28;20467;-72
2022/01/02 09:18:16;;;;;;;11.03;7.90;;;;;;;;;;5071505;28;20447;-72
2022/01/02 09:20:44;;;;;;;9.30;7.40;;;;;;;;;;5071549;28;20933;-72
2022/01/02 09:23:11;;;;;;;12.90;9.80;;;;;;;;;;5071455;28;20451;-72
2022/01/02 09:25:38;;;;;;;12.47;9.10;;;;;;;;;;5071102;28;20472;-72
2022/01/02 09:28:05;;;;;;;11.23;8.00;;;;;;;;;;5071549;28;20459;-72
2022/01/02 09:30:34;;;;;;;9.80;6.87;;;;;;;;;;5071295;28;20463;-71
2022/01/02 09:33:01;;;;;;;11.40;7.00;;;;;;;;;;5072142;28;20948;-71
2022/01/02 09:35:29;;;;;;;11.67;8.70;;;;;;;;;;5072740;28;20976;-71
2022/01/02 09:37:56;;;;;;;9.33;7.20;;;;;;;;;;5072463;28;20944;-71
2022/01/02 09:40:26;;;;;;;14.80;9.03;;;;;;;;;;5072589;28;20467;-71
2022/01/02 09:42:54;;;;;;;8.97;6.50;;;;;;;;;;5072662;28;20447;-71
2022/01/02 09:45:21;;;;;;;6.20;5.60;;;;;;;;;;5072110;28;20859;-71
2022/01/02 09:47:49;;;;;;;7.50;5.40;;;;;;;;;;5072716;28;20467;-71
2022/01/02 09:50:18;;;;;;;6.87;4.50;;;;;;;;;;5072399;28;20451;-71
2022/01/02 09:52:45;;;;;;;8.17;4.60;;;;;;;;;;5072341;28;20941;-71
2022/01/02 09:55:12;;;;;;;4.80;4.30;;;;;;;;;;5072251;28;20479;-71
2022/01/02 09:57:43;;;;;;;5.50;4.30;;;;;;;;;;5072272;28;20948;-71
2022/01/02 10:00:11;;;;;;;6.07;4.47;;;;;;;;;;5072480;28;20463;-71
2022/01/02 10:02:52;;;;;;;5.00;3.70;;;;;;;;;;5072331;28;20455;-71
2022/01/02 10:05:21;;;;;;;5.70;4.90;;;;;;;;;;5072473;28;21019;-71
2022/01/02 10:07:50;;;;;;;7.20;4.80;;;;;;;;;;5076043;28;20450;-71
2022/01/02 10:10:17;;;;;;;5.53;5.03;;;;;;;;;;5075989;28;20451;-71
2022/01/02 10:12:44;;;;;;;5.77;4.90;;;;;;;;;;5075837;28;20459;-71
2022/01/02 10:15:12;;;;;;;5.37;4.37;;;;;;;;;;5075706;28;20844;-71
2022/01/02 10:17:52;;;;;;;4.70;3.80;;;;;;;;;;5075706;28;20447;-71
2022/01/02 10:20:20;;;;;;;5.23;3.93;;;;;;;;;;5075829;28;20451;-71
2022/01/02 10:23:01;;;;;;;5.90;4.33;;;;;;;;;;5075865;28;20478;-71
2022/01/02 10:25:39;;;;;;;7.53;4.50;;;;;;;;;;5075426;28;20834;-71
2022/01/02 10:28:18;;;;;;;6.60;4.10;;;;;;;;;;5075763;28;21039;-71
2022/01/02 10:30:46;;;;;;;5.27;3.80;;;;;;;;;;5075704;28;20932;-71
2022/01/02 10:33:14;;;;;;;5.47;3.93;;;;;;;;;;5075705;28;20824;-71
2022/01/02 10:35:41;;;;;;;5.03;4.53;;;;;;;;;;5075196;28;20459;-71
2022/01/02 10:38:15;;;;;;;4.40;4.00;;;;;;;;;;5075158;28;20493;-71
2022/01/02 10:40:42;;;;;;;5.33;4.70;;;;;;;;;;5075385;28;20971;-71
2022/01/02 10:43:10;;;;;;;5.10;4.60;;;;;;;;;;5075365;28;20576;-71
2022/01/02 10:45:39;;;;;;;4.37;3.97;;;;;;;;;;5074935;28;20491;-71
2022/01/02 10:48:09;;;;;;;3.77;3.47;;;;;;;;;;5075353;28;20964;-71
2022/01/02 10:50:36;;;;;;;4.33;3.97;;;;;;;;;;5075206;28;20941;-71
2022/01/02 10:53:13;;;;;;;5.33;4.83;;;;;;;;;;5075232;28;20482;-71
2022/01/02 10:55:40;;;;;;;4.60;4.20;;;;;;;;;;5074892;28;20475;-71
2022/01/02 10:58:09;;;;;;;6.27;3.80;;;;;;;;;;5075026;28;20447;-71
2022/01/02 11:00:38;;;;;;;4.50;4.10;;;;;;;;;;5074951;28;20509;-71
2022/01/02 11:03:06;;;;;;;5.07;3.77;;;;;;;;;;5075107;28;20941;-71
2022/01/02 11:05:35;;;;;;;7.40;4.00;;;;;;;;;;5074544;28;21000;-71
2022/01/02 11:08:03;;;;;;;4.30;3.67;;;;;;;;;;5074933;28;20457;-71
2022/01/02 11:10:32;;;;;;;5.13;3.90;;;;;;;;;;5074728;28;20456;-71
2022/01/02 11:12:59;;;;;;;3.90;3.60;;;;;;;;;;5074898;28;20895;-71
2022/01/02 11:15:26;;;;;;;4.40;3.83;;;;;;;;;;5074474;28;20475;-71
2022/01/02 11:17:54;;;;;;;4.47;3.37;;;;;;;;;;5073716;28;20451;-71
2022/01/02 11:20:22;;;;;;;4.93;4.47;;;;;;;;;;5074592;28;20456;-71
2022/01/02 11:22:52;;;;;;;5.97;4.33;;;;;;;;;;5074888;28;20451;-71
2022/01/02 11:25:22;;;;;;;5.73;5.13;;;;;;;;;;5074158;28;20637;-71
2022/01/02 11:27:54;;;;;;;5.47;4.93;;;;;;;;;;5074529;28;20474;-71
2022/01/02 11:30:45;;;;;;;4.67;4.07;;;;;;;;;;5074269;28;20475;-71
2022/01/02 11:33:13;;;;;;;4.60;3.93;;;;;;;;;;5064075;28;20464;-71
2022/01/02 11:35:42;;;;;;;4.73;4.10;;;;;;;;;;5074015;28;20805;-71
2022/01/02 11:38:10;;;;;;;7.77;5.37;;;;;;;;;;5073873;28;20451;-71
2022/01/02 11:40:44;;;;;;;5.47;4.77;;;;;;;;;;5074290;28;20455;-71
2022/01/02 11:43:33;;;;;;;4.20;3.80;;;;;;;;;;5066870;28;20443;-71
2022/01/02 11:46:15;;;;;;;5.07;3.50;;;;;;;;;;5071895;28;20496;-71
2022/01/02 11:48:44;;;;;;;4.20;3.43;;;;;;;;;;5072465;28;20448;-72
2022/01/02 11:51:11;;;;;;;3.10;2.80;;;;;;;;;;5072360;28;20448;-72
2022/01/02 11:53:52;;;;;;;4.07;3.67;;;;;;;;;;5072293;28;20846;-72
2022/01/02 11:56:33;;;;;;;4.10;3.70;;;;;;;;;;5072454;28;20475;-72
2022/01/02 11:59:00;;;;;;;7.97;3.90;;;;;;;;;;5072830;28;20806;-71
2022/01/02 12:01:51;;;;;;;4.37;3.93;;;;;;;;;;5073738;28;20455;-71
2022/01/02 12:04:19;;;;;;;6.13;4.00;;;;;;;;;;5073150;28;20546;-71
2022/01/02 12:06:52;;;;;;;7.97;7.17;;;;;;;;;;5073762;28;20444;-71
2022/01/02 12:09:36;;;;;;;26.20;22.90;;;;;;;;;;5073782;28;20460;-71
2022/01/02 12:12:04;;;;;;;7.57;6.80;;;;;;;;;;5073613;28;20447;-71
2022/01/02 12:14:31;;;;;;;6.40;4.30;;;;;;;;;;5073210;28;20464;-71
2022/01/02 12:17:07;;;;;;;7.30;4.70;;;;;;;;;;5073678;28;20454;-71
2022/01/02 12:19:49;;;;;;;8.87;6.00;;;;;;;;;;5073530;28;20508;-71
2022/01/02 12:22:18;;;;;;;5.73;4.90;;;;;;;;;;5073264;28;20815;-71
2022/01/02 12:24:46;;;;;;;5.67;4.83;;;;;;;;;;5072965;28;20488;-71
2022/01/02 12:27:14;;;;;;;6.53;4.87;;;;;;;;;;5073458;28;20504;-71
2022/01/02 12:29:41;;;;;;;5.93;5.33;;;;;;;;;;5072858;28;20459;-71
2022/01/02 12:32:09;;;;;;;6.53;4.93;;;;;;;;;;5073288;28;20527;-71
2022/01/02 12:34:37;;;;;;;5.30;4.80;;;;;;;;;;5072976;28;20471;-71
2022/01/02 12:37:04;;;;;;;7.40;5.17;;;;;;;;;;5072987;28;20451;-71
2022/01/02 12:39:33;;;;;;;5.90;4.70;;;;;;;;;;5073081;28;20451;-72
2022/01/02 12:42:02;;;;;;;7.00;5.50;;;;;;;;;;5073258;28;20447;-71
2022/01/02 12:44:30;;;;;;;6.23;4.60;;;;;;;;;;5072666;28;20448;-71
2022/01/02 12:46:58;;;;;;;5.30;4.73;;;;;;;;;;5073174;28;20473;-71
2022/01/02 12:49:26;;;;;;;7.17;5.70;;;;;;;;;;5073239;28;20450;-71
2022/01/02 12:51:54;;;;;;;8.97;6.37;;;;;;;;;;5073112;28;20447;-71
2022/01/02 12:54:23;;;;;;;5.90;5.10;;;;;;;;;;5072713;28;20451;-71
2022/01/02 12:56:53;;;;;;;7.93;5.50;;;;;;;;;;5073175;28;20975;-71
2022/01/02 12:59:24;;;;;;;6.17;4.93;;;;;;;;;;5073014;28;20447;-71
2022/01/02 13:01:56;;;;;;;6.97;4.80;;;;;;;;;;5073199;28;20455;-71
2022/01/02 13:04:23;;;;;;;4.37;3.97;;;;;;;;;;5072565;28;20454;-71
2022/01/02 13:06:51;;;;;;;5.53;5.00;;;;;;;;;;5072971;28;20826;-71
2022/01/02 13:09:28;;;;;;;8.37;5.23;;;;;;;;;;5072944;28;20455;-71
2022/01/02 13:11:57;;;;;;;13.40;7.97;;;;;;;;;;5072877;28;20447;-71
2022/01/02 13:14:37;;;;;;;18.73;9.10;;;;;;;;;;5072555;28;20467;-71
2022/01/02 13:17:07;;;;;;;9.20;6.90;;;;;;;;;;5072999;28;20458;-71
2022/01/02 13:19:36;;;;;;;15.13;10.27;;;;;;;;;;5072822;28;20520;-71
2022/01/02 13:22:04;;;;;;;14.60;8.87;;;;;;;;;;5072709;28;20455;-71
2022/01/02 13:24:31;;;;;;;8.07;5.80;;;;;;;;;;5072371;28;20451;-71
2022/01/02 13:27:00;;;;;;;7.93;5.07;;;;;;;;;;5072682;28;20448;-71
2022/01/02 13:29:28;;;;;;;8.37;7.10;;;;;;;;;;5072531;28;20467;-71
2022/01/02 13:31:56;;;;;;;15.63;7.93;;;;;;;;;;5072747;28;20462;-71
2022/01/02 13:34:24;;;;;;;19.83;12.60;;;;;;;;;;5072279;28;20554;-71
2022/01/02 13:36:58;;;;;;;18.43;11.63;;;;;;;;;;5072410;28;20447;-71
2022/01/02 13:39:41;;;;;;;14.17;8.87;;;;;;;;;;5072596;28;20451;-71
2022/01/02 13:42:10;;;;;;;26.70;14.47;;;;;;;;;;5076097;28;21023;-71
2022/01/02 13:44:38;;;;;;;16.33;10.57;;;;;;;;;;5076113;28;20478;-71
2022/01/02 13:47:05;;;;;;;16.93;10.60;;;;;;;;;;5076556;28;20455;-71
2022/01/02 13:49:46;;;;;;;14.33;9.57;;;;;;;;;;5076372;28;20452;-72
2022/01/02 13:52:14;;;;;;;14.33;8.50;;;;;;;;;;5076376;28;20473;-71
2022/01/02 13:54:41;;;;;;;10.33;6.97;;;;;;;;;;5076048;28;20471;-71
2022/01/02 13:57:10;;;;;;;11.00;6.93;;;;;;;;;;5076395;28;20448;-71
2022/01/02 13:59:38;;;;;;;8.60;5.47;;;;;;;;;;5076330;28;20460;-71
2022/01/02 14:02:06;;;;;;;9.73;6.00;;;;;;;;;;5076203;28;20452;-71
2022/01/02 14:04:51;;;;;;;7.07;5.90;;;;;;;;;;5075747;28;20483;-71
2022/01/02 14:07:18;;;;;;;7.70;5.40;;;;;;;;;;5076066;28;20451;-71
2022/01/02 14:09:50;;;;;;;8.83;5.80;;;;;;;;;;5075891;28;20451;-71
2022/01/02 14:12:20;;;;;;;8.63;6.17;;;;;;;;;;5075980;28;20451;-71
2022/01/02 14:14:51;;;;;;;8.77;6.30;;;;;;;;;;5075765;28;20482;-71
2022/01/02 14:17:33;;;;;;;7.17;5.23;;;;;;;;;;5075986;28;20455;-71
2022/01/02 14:20:01;;;;;;;12.13;6.17;;;;;;;;;;5075945;28;20821;-71
2022/01/02 14:22:29;;;;;;;9.97;6.20;;;;;;;;;;5075671;28;20451;-71
2022/01/02 14:24:57;;;;;;;7.03;5.50;;;;;;;;;;5075362;28;20482;-71
2022/01/02 14:27:25;;;;;;;7.43;4.90;;;;;;;;;;5075660;28;20872;-71
2022/01/02 14:29:54;;;;;;;8.67;5.27;;;;;;;;;;5075616;28;20463;-71
2022/01/02 14:32:21;;;;;;;6.00;5.20;;;;;;;;;;5075633;28;20836;-71
2022/01/02 14:34:49;;;;;;;9.60;6.73;;;;;;;;;;5075397;28;20463;-71
2022/01/02 14:37:17;;;;;;;190.43;98.93;;;;;;;;;;5075374;28;20788;-71
2022/01/02 14:39:45;;;;;;;21.87;11.10;;;;;;;;;;5075541;28;20508;-71
2022/01/02 14:42:12;;;;;;;12.90;9.20;;;;;;;;;;5075497;28;20815;-71
2022/01/02 14:44:40;;;;;;;16.20;13.50;;;;;;;;;;5075145;28;20482;-71